This is the latest recevied weather packets stored in our database for station/object HARMALA. If no packets are shown the sender has not sent any weather packets the latest 10 day(s).
| Time | Temp. | Humidity | Pressure | Rain* | Wind** | Luminosity | Snow |
|---|---|---|---|---|---|---|---|
| 1777806429 | 11.11° C | 60% | 1008.3 hPa | 0 mm | - | - | - |
| 1777805234 | 12.22° C | 57% | 1008.2 hPa | 0 mm | - | - | - |
| 1777804029 | 11.67° C | 60% | 1008.2 hPa | 0 mm | - | - | - |
| 1777802829 | 11.11° C | 60% | 1008.3 hPa | 0 mm | - | - | - |
| 1777801629 | 11.67° C | 60% | 1008.2 hPa | 0 mm | - | - | - |
| 1777800429 | 10.56° C | 64% | 1008.3 hPa | 0 mm | - | - | - |
| 1777799229 | 10° C | 65% | 1008.2 hPa | 0 mm | - | - | - |
| 1777798029 | 10.56° C | 64% | 1008.1 hPa | 0 mm | - | - | - |
| 1777796829 | 10.56° C | 62% | 1008 hPa | 0 mm | - | - | - |
| 1777795629 | 10.56° C | 62% | 1007.7 hPa | 0 mm | - | - | - |
| 1777794428 | 10° C | 60% | 1007.8 hPa | 0 mm | - | - | - |
| 1777793228 | 10° C | 64% | 1007.4 hPa | 0 mm | - | - | - |
| 1777792028 | 10° C | 67% | 1007.2 hPa | 0 mm | - | - | - |
| 1777790828 | 10° C | 69% | 1007.2 hPa | 0 mm | - | - | - |
| 1777789628 | 9.44° C | 72% | 1007 hPa | 0 mm | - | - | - |
| 1777788428 | 8.33° C | 73% | 1006.8 hPa | 0 mm | - | - | - |
| 1777787228 | 8.33° C | 75% | 1006.6 hPa | 0 mm | - | - | - |
| 1777786028 | 8.33° C | 78% | 1006.7 hPa | 0 mm | - | - | - |
| 1777784828 | 7.78° C | 79% | 1006.5 hPa | 0 mm | - | - | - |
| 1777783628 | 7.78° C | 80% | 1006.4 hPa | 0.25 mm | - | - | - |
| 1777782428 | 7.78° C | 80% | 1006.3 hPa | 0.25 mm | - | - | - |
| 1777781228 | 7.78° C | 81% | 1006.3 hPa | 0.25 mm | - | - | - |
| 1777780027 | 8.33° C | 75% | 1006.1 hPa | 0 mm | - | - | - |
| 1777778828 | 8.89° C | 70% | 1005.7 hPa | 0 mm | - | - | - |
| 1777777628 | 8.89° C | 69% | 1005.6 hPa | 0 mm | - | - | - |
* Rain latest hour (hover to see other rain measurements)
** Current wind speed in m/s (hover to see current wind gust speed)